sensor_id;sensor_type;location;lat;lon;timestamp;P1;durP1;ratioP1;P2;durP2;ratioP2
14734;SDS011;7458;49.002;8.472;2022-11-15T00:00:53;15.45;;;13.85;;
14734;SDS011;7458;49.002;8.472;2022-11-15T00:03:20;17.15;;;14.88;;
14734;SDS011;7458;49.002;8.472;2022-11-15T00:05:52;16.85;;;14.95;;
14734;SDS011;7458;49.002;8.472;2022-11-15T00:08:18;16.08;;;14.25;;
14734;SDS011;7458;49.002;8.472;2022-11-15T00:10:56;15.55;;;13.95;;
14734;SDS011;7458;49.002;8.472;2022-11-15T00:13:24;15.23;;;13.73;;
14734;SDS011;7458;49.002;8.472;2022-11-15T00:15:51;23.73;;;13.70;;
14734;SDS011;7458;49.002;8.472;2022-11-15T00:18:17;14.88;;;12.10;;
14734;SDS011;7458;49.002;8.472;2022-11-15T00:20:43;14.38;;;12.95;;
14734;SDS011;7458;49.002;8.472;2022-11-15T00:23:09;15.52;;;12.07;;
14734;SDS011;7458;49.002;8.472;2022-11-15T00:25:35;17.58;;;13.27;;
14734;SDS011;7458;49.002;8.472;2022-11-15T00:28:01;14.10;;;12.32;;
14734;SDS011;7458;49.002;8.472;2022-11-15T00:30:27;18.02;;;13.50;;
14734;SDS011;7458;49.002;8.472;2022-11-15T00:32:53;18.75;;;13.43;;
14734;SDS011;7458;49.002;8.472;2022-11-15T00:35:19;19.13;;;13.75;;
14734;SDS011;7458;49.002;8.472;2022-11-15T00:37:46;17.13;;;12.85;;
14734;SDS011;7458;49.002;8.472;2022-11-15T00:40:12;13.77;;;12.43;;
14734;SDS011;7458;49.002;8.472;2022-11-15T00:42:40;13.18;;;11.88;;
14734;SDS011;7458;49.002;8.472;2022-11-15T00:45:06;14.88;;;12.48;;
14734;SDS011;7458;49.002;8.472;2022-11-15T00:47:33;14.13;;;12.68;;
14734;SDS011;7458;49.002;8.472;2022-11-15T00:49:59;12.43;;;11.13;;
14734;SDS011;7458;49.002;8.472;2022-11-15T00:52:24;13.10;;;11.68;;
14734;SDS011;7458;49.002;8.472;2022-11-15T00:54:50;16.52;;;12.48;;
14734;SDS011;7458;49.002;8.472;2022-11-15T00:57:16;17.27;;;12.05;;
14734;SDS011;7458;49.002;8.472;2022-11-15T00:59:42;15.13;;;11.98;;
14734;SDS011;7458;49.002;8.472;2022-11-15T01:02:07;15.05;;;12.45;;
14734;SDS011;7458;49.002;8.472;2022-11-15T01:04:33;15.93;;;12.40;;
14734;SDS011;7458;49.002;8.472;2022-11-15T01:06:59;14.77;;;11.20;;
14734;SDS011;7458;49.002;8.472;2022-11-15T01:09:24;15.80;;;11.82;;
14734;SDS011;7458;49.002;8.472;2022-11-15T01:11:50;18.17;;;12.35;;
14734;SDS011;7458;49.002;8.472;2022-11-15T01:14:17;15.07;;;13.25;;
14734;SDS011;7458;49.002;8.472;2022-11-15T01:16:42;15.70;;;13.35;;
14734;SDS011;7458;49.002;8.472;2022-11-15T01:19:08;11.40;;;10.27;;
14734;SDS011;7458;49.002;8.472;2022-11-15T01:21:34;14.45;;;11.00;;
14734;SDS011;7458;49.002;8.472;2022-11-15T01:24:00;14.80;;;12.20;;
14734;SDS011;7458;49.002;8.472;2022-11-15T01:26:26;11.77;;;10.60;;
14734;SDS011;7458;49.002;8.472;2022-11-15T01:28:52;17.35;;;11.95;;
14734;SDS011;7458;49.002;8.472;2022-11-15T01:31:18;12.82;;;11.45;;
14734;SDS011;7458;49.002;8.472;2022-11-15T01:33:46;18.05;;;13.50;;
14734;SDS011;7458;49.002;8.472;2022-11-15T01:36:17;16.38;;;13.20;;
14734;SDS011;7458;49.002;8.472;2022-11-15T01:41:20;13.45;;;11.45;;
14734;SDS011;7458;49.002;8.472;2022-11-15T01:43:51;11.77;;;10.38;;
14734;SDS011;7458;49.002;8.472;2022-11-15T01:48:46;17.40;;;13.23;;
14734;SDS011;7458;49.002;8.472;2022-11-15T01:51:17;13.35;;;11.40;;
14734;SDS011;7458;49.002;8.472;2022-11-15T01:53:45;17.33;;;12.20;;
14734;SDS011;7458;49.002;8.472;2022-11-15T01:56:19;15.25;;;11.02;;
14734;SDS011;7458;49.002;8.472;2022-11-15T01:58:52;15.30;;;11.07;;
14734;SDS011;7458;49.002;8.472;2022-11-15T02:01:22;15.07;;;10.63;;
14734;SDS011;7458;49.002;8.472;2022-11-15T02:04:34;12.00;;;10.77;;
14734;SDS011;7458;49.002;8.472;2022-11-15T02:06:44;12.55;;;10.70;;
14734;SDS011;7458;49.002;8.472;2022-11-15T02:09:13;12.18;;;10.95;;
14734;SDS011;7458;49.002;8.472;2022-11-15T02:11:40;19.95;;;11.45;;
14734;SDS011;7458;49.002;8.472;2022-11-15T02:14:06;13.52;;;11.55;;
14734;SDS011;7458;49.002;8.472;2022-11-15T02:36:06;14.15;;;10.63;;
14734;SDS011;7458;49.002;8.472;2022-11-15T02:39:15;13.13;;;10.93;;
14734;SDS011;7458;49.002;8.472;2022-11-15T02:42:04;13.65;;;11.48;;
14734;SDS011;7458;49.002;8.472;2022-11-15T02:45:13;16.27;;;10.10;;
14734;SDS011;7458;49.002;8.472;2022-11-15T02:47:48;18.52;;;11.27;;
14734;SDS011;7458;49.002;8.472;2022-11-15T02:50:20;15.23;;;10.82;;
14734;SDS011;7458;49.002;8.472;2022-11-15T02:52:50;12.60;;;10.65;;
14734;SDS011;7458;49.002;8.472;2022-11-15T02:55:27;12.00;;;10.55;;
14734;SDS011;7458;49.002;8.472;2022-11-15T02:58:19;12.23;;;9.88;;
14734;SDS011;7458;49.002;8.472;2022-11-15T03:06:44;9.35;;;8.45;;
14734;SDS011;7458;49.002;8.472;2022-11-15T03:15:32;11.15;;;9.45;;
14734;SDS011;7458;49.002;8.472;2022-11-15T03:18:12;12.02;;;9.75;;
14734;SDS011;7458;49.002;8.472;2022-11-15T03:20:51;14.30;;;9.80;;
14734;SDS011;7458;49.002;8.472;2022-11-15T03:23:20;11.23;;;8.88;;
14734;SDS011;7458;49.002;8.472;2022-11-15T03:25:48;12.02;;;9.77;;
14734;SDS011;7458;49.002;8.472;2022-11-15T03:28:23;12.90;;;9.65;;
14734;SDS011;7458;49.002;8.472;2022-11-15T03:30:59;12.73;;;10.43;;
14734;SDS011;7458;49.002;8.472;2022-11-15T03:33:49;10.98;;;9.57;;
14734;SDS011;7458;49.002;8.472;2022-11-15T03:36:21;11.68;;;9.27;;
14734;SDS011;7458;49.002;8.472;2022-11-15T03:38:49;15.15;;;10.15;;
14734;SDS011;7458;49.002;8.472;2022-11-15T03:41:24;9.98;;;8.88;;
14734;SDS011;7458;49.002;8.472;2022-11-15T03:47:10;10.75;;;8.90;;
14734;SDS011;7458;49.002;8.472;2022-11-15T03:49:38;10.52;;;9.13;;
14734;SDS011;7458;49.002;8.472;2022-11-15T03:52:19;12.95;;;9.18;;
14734;SDS011;7458;49.002;8.472;2022-11-15T03:54:47;10.52;;;8.23;;
14734;SDS011;7458;49.002;8.472;2022-11-15T03:57:21;10.43;;;9.32;;
14734;SDS011;7458;49.002;8.472;2022-11-15T03:59:47;11.07;;;7.55;;
14734;SDS011;7458;49.002;8.472;2022-11-15T04:02:13;8.55;;;7.65;;
14734;SDS011;7458;49.002;8.472;2022-11-15T04:04:39;8.55;;;7.65;;
14734;SDS011;7458;49.002;8.472;2022-11-15T04:07:05;10.57;;;8.00;;
14734;SDS011;7458;49.002;8.472;2022-11-15T04:09:31;9.07;;;7.22;;
14734;SDS011;7458;49.002;8.472;2022-11-15T04:11:57;10.95;;;7.53;;
14734;SDS011;7458;49.002;8.472;2022-11-15T04:14:22;8.48;;;7.72;;
14734;SDS011;7458;49.002;8.472;2022-11-15T04:16:48;7.47;;;6.70;;
14734;SDS011;7458;49.002;8.472;2022-11-15T04:19:14;8.80;;;7.25;;
14734;SDS011;7458;49.002;8.472;2022-11-15T04:21:58;7.93;;;6.45;;
14734;SDS011;7458;49.002;8.472;2022-11-15T04:24:42;10.82;;;6.25;;
14734;SDS011;7458;49.002;8.472;2022-11-15T04:27:08;7.55;;;5.63;;
14734;SDS011;7458;49.002;8.472;2022-11-15T04:29:33;6.97;;;5.60;;
14734;SDS011;7458;49.002;8.472;2022-11-15T04:32:00;6.63;;;5.22;;
14734;SDS011;7458;49.002;8.472;2022-11-15T04:34:30;10.13;;;5.65;;
14734;SDS011;7458;49.002;8.472;2022-11-15T04:36:57;7.13;;;5.88;;
14734;SDS011;7458;49.002;8.472;2022-11-15T04:39:42;6.53;;;5.03;;
14734;SDS011;7458;49.002;8.472;2022-11-15T04:42:08;8.23;;;6.22;;
14734;SDS011;7458;49.002;8.472;2022-11-15T04:44:35;9.38;;;5.47;;
14734;SDS011;7458;49.002;8.472;2022-11-15T04:47:01;10.10;;;7.13;;
14734;SDS011;7458;49.002;8.472;2022-11-15T04:49:27;13.38;;;6.72;;
14734;SDS011;7458;49.002;8.472;2022-11-15T04:51:53;9.02;;;7.50;;
14734;SDS011;7458;49.002;8.472;2022-11-15T04:54:19;10.50;;;9.30;;
14734;SDS011;7458;49.002;8.472;2022-11-15T04:56:45;10.00;;;8.43;;
14734;SDS011;7458;49.002;8.472;2022-11-15T04:59:10;11.13;;;8.18;;
14734;SDS011;7458;49.002;8.472;2022-11-15T05:01:36;13.48;;;9.57;;
14734;SDS011;7458;49.002;8.472;2022-11-15T05:04:02;11.73;;;10.38;;
14734;SDS011;7458;49.002;8.472;2022-11-15T05:06:49;9.73;;;8.43;;
14734;SDS011;7458;49.002;8.472;2022-11-15T05:09:17;9.57;;;8.55;;
14734;SDS011;7458;49.002;8.472;2022-11-15T05:11:44;12.52;;;10.65;;
14734;SDS011;7458;49.002;8.472;2022-11-15T05:14:10;9.82;;;8.73;;
14734;SDS011;7458;49.002;8.472;2022-11-15T05:16:36;16.95;;;9.13;;
14734;SDS011;7458;49.002;8.472;2022-11-15T05:19:03;10.02;;;6.97;;
14734;SDS011;7458;49.002;8.472;2022-11-15T05:21:30;10.05;;;8.18;;
14734;SDS011;7458;49.002;8.472;2022-11-15T05:23:57;10.70;;;7.32;;
14734;SDS011;7458;49.002;8.472;2022-11-15T05:26:23;9.15;;;7.43;;
14734;SDS011;7458;49.002;8.472;2022-11-15T05:28:56;9.52;;;7.28;;
14734;SDS011;7458;49.002;8.472;2022-11-15T05:31:24;9.48;;;8.25;;
14734;SDS011;7458;49.002;8.472;2022-11-15T05:33:51;11.65;;;8.90;;
14734;SDS011;7458;49.002;8.472;2022-11-15T05:36:30;10.75;;;7.55;;
14734;SDS011;7458;49.002;8.472;2022-11-15T05:39:07;10.07;;;8.10;;
14734;SDS011;7458;49.002;8.472;2022-11-15T05:41:35;8.15;;;7.35;;
14734;SDS011;7458;49.002;8.472;2022-11-15T05:44:12;14.07;;;10.20;;
14734;SDS011;7458;49.002;8.472;2022-11-15T05:46:44;9.35;;;8.02;;
14734;SDS011;7458;49.002;8.472;2022-11-15T05:49:11;11.57;;;8.40;;
14734;SDS011;7458;49.002;8.472;2022-11-15T05:51:43;8.35;;;7.15;;
14734;SDS011;7458;49.002;8.472;2022-11-15T05:54:13;11.00;;;8.05;;
14734;SDS011;7458;49.002;8.472;2022-11-15T05:56:41;10.00;;;7.22;;
14734;SDS011;7458;49.002;8.472;2022-11-15T05:59:08;11.77;;;8.43;;
14734;SDS011;7458;49.002;8.472;2022-11-15T06:01:35;14.25;;;8.07;;
14734;SDS011;7458;49.002;8.472;2022-11-15T06:04:02;10.90;;;7.95;;
14734;SDS011;7458;49.002;8.472;2022-11-15T06:06:28;10.02;;;8.63;;
14734;SDS011;7458;49.002;8.472;2022-11-15T06:08:54;9.45;;;8.43;;
14734;SDS011;7458;49.002;8.472;2022-11-15T06:11:20;11.27;;;9.15;;
14734;SDS011;7458;49.002;8.472;2022-11-15T06:13:46;10.52;;;7.47;;
14734;SDS011;7458;49.002;8.472;2022-11-15T06:16:11;10.55;;;8.18;;
14734;SDS011;7458;49.002;8.472;2022-11-15T06:18:37;8.70;;;7.90;;
14734;SDS011;7458;49.002;8.472;2022-11-15T06:21:03;9.77;;;8.00;;
14734;SDS011;7458;49.002;8.472;2022-11-15T06:23:34;10.90;;;8.95;;
14734;SDS011;7458;49.002;8.472;2022-11-15T06:26:00;9.60;;;7.68;;
14734;SDS011;7458;49.002;8.472;2022-11-15T06:28:28;11.05;;;8.38;;
14734;SDS011;7458;49.002;8.472;2022-11-15T06:30:56;10.02;;;8.68;;
14734;SDS011;7458;49.002;8.472;2022-11-15T06:33:36;11.68;;;8.50;;
14734;SDS011;7458;49.002;8.472;2022-11-15T06:36:04;8.98;;;7.13;;
14734;SDS011;7458;49.002;8.472;2022-11-15T06:38:33;10.15;;;9.10;;
14734;SDS011;7458;49.002;8.472;2022-11-15T06:41:03;9.75;;;8.02;;
14734;SDS011;7458;49.002;8.472;2022-11-15T06:43:31;10.40;;;8.57;;
14734;SDS011;7458;49.002;8.472;2022-11-15T06:45:59;10.55;;;7.38;;
14734;SDS011;7458;49.002;8.472;2022-11-15T06:48:26;13.18;;;7.65;;
14734;SDS011;7458;49.002;8.472;2022-11-15T06:50:54;11.45;;;8.18;;
14734;SDS011;7458;49.002;8.472;2022-11-15T06:53:23;12.02;;;9.38;;
14734;SDS011;7458;49.002;8.472;2022-11-15T06:55:50;9.63;;;8.43;;
14734;SDS011;7458;49.002;8.472;2022-11-15T06:58:16;10.30;;;8.73;;
14734;SDS011;7458;49.002;8.472;2022-11-15T07:00:42;10.40;;;8.73;;
14734;SDS011;7458;49.002;8.472;2022-11-15T07:03:09;9.90;;;7.72;;
14734;SDS011;7458;49.002;8.472;2022-11-15T07:05:35;10.85;;;8.95;;
14734;SDS011;7458;49.002;8.472;2022-11-15T07:08:01;11.57;;;7.85;;
14734;SDS011;7458;49.002;8.472;2022-11-15T07:10:28;11.32;;;7.20;;
14734;SDS011;7458;49.002;8.472;2022-11-15T07:12:54;9.75;;;7.22;;
14734;SDS011;7458;49.002;8.472;2022-11-15T07:15:22;11.25;;;7.20;;
14734;SDS011;7458;49.002;8.472;2022-11-15T07:17:50;9.23;;;8.20;;
14734;SDS011;7458;49.002;8.472;2022-11-15T07:20:16;10.75;;;8.05;;
14734;SDS011;7458;49.002;8.472;2022-11-15T07:22:43;13.25;;;8.30;;
14734;SDS011;7458;49.002;8.472;2022-11-15T07:25:12;25.73;;;14.23;;
14734;SDS011;7458;49.002;8.472;2022-11-15T07:27:38;24.23;;;11.30;;
14734;SDS011;7458;49.002;8.472;2022-11-15T07:30:04;11.07;;;8.95;;
14734;SDS011;7458;49.002;8.472;2022-11-15T07:32:30;13.13;;;9.23;;
14734;SDS011;7458;49.002;8.472;2022-11-15T07:34:56;10.25;;;8.05;;
14734;SDS011;7458;49.002;8.472;2022-11-15T07:37:22;9.55;;;8.63;;
14734;SDS011;7458;49.002;8.472;2022-11-15T07:39:47;11.77;;;9.20;;
14734;SDS011;7458;49.002;8.472;2022-11-15T07:42:13;11.27;;;9.20;;
14734;SDS011;7458;49.002;8.472;2022-11-15T07:44:58;10.52;;;8.90;;
14734;SDS011;7458;49.002;8.472;2022-11-15T07:47:23;17.20;;;8.93;;
14734;SDS011;7458;49.002;8.472;2022-11-15T07:49:49;12.55;;;9.75;;
14734;SDS011;7458;49.002;8.472;2022-11-15T07:52:15;13.02;;;8.38;;
14734;SDS011;7458;49.002;8.472;2022-11-15T07:54:40;12.95;;;9.45;;
14734;SDS011;7458;49.002;8.472;2022-11-15T07:57:06;10.20;;;9.27;;
14734;SDS011;7458;49.002;8.472;2022-11-15T07:59:34;11.65;;;8.68;;
14734;SDS011;7458;49.002;8.472;2022-11-15T08:01:59;10.40;;;9.40;;
14734;SDS011;7458;49.002;8.472;2022-11-15T08:04:26;10.45;;;8.45;;
14734;SDS011;7458;49.002;8.472;2022-11-15T08:06:51;10.82;;;8.93;;
14734;SDS011;7458;49.002;8.472;2022-11-15T08:09:17;12.75;;;8.30;;
14734;SDS011;7458;49.002;8.472;2022-11-15T08:11:43;11.70;;;8.95;;
14734;SDS011;7458;49.002;8.472;2022-11-15T08:14:08;12.57;;;8.43;;
14734;SDS011;7458;49.002;8.472;2022-11-15T08:16:34;11.00;;;7.82;;
14734;SDS011;7458;49.002;8.472;2022-11-15T08:19:00;11.32;;;8.52;;
14734;SDS011;7458;49.002;8.472;2022-11-15T08:21:28;11.32;;;8.30;;
14734;SDS011;7458;49.002;8.472;2022-11-15T08:23:54;10.70;;;8.30;;
14734;SDS011;7458;49.002;8.472;2022-11-15T08:26:20;10.90;;;8.85;;
14734;SDS011;7458;49.002;8.472;2022-11-15T08:28:46;13.75;;;10.27;;
14734;SDS011;7458;49.002;8.472;2022-11-15T08:31:15;11.13;;;9.90;;
14734;SDS011;7458;49.002;8.472;2022-11-15T08:33:46;9.43;;;7.85;;
14734;SDS011;7458;49.002;8.472;2022-11-15T08:36:13;10.82;;;8.57;;
14734;SDS011;7458;49.002;8.472;2022-11-15T08:38:41;11.00;;;8.10;;
14734;SDS011;7458;49.002;8.472;2022-11-15T08:41:13;9.90;;;8.82;;
14734;SDS011;7458;49.002;8.472;2022-11-15T08:43:49;10.38;;;8.20;;
14734;SDS011;7458;49.002;8.472;2022-11-15T08:46:15;11.18;;;7.60;;
14734;SDS011;7458;49.002;8.472;2022-11-15T08:48:41;8.00;;;7.20;;
14734;SDS011;7458;49.002;8.472;2022-11-15T08:51:06;9.70;;;7.35;;
14734;SDS011;7458;49.002;8.472;2022-11-15T08:53:33;10.90;;;7.22;;
14734;SDS011;7458;49.002;8.472;2022-11-15T08:55:59;10.93;;;8.15;;
14734;SDS011;7458;49.002;8.472;2022-11-15T08:58:25;7.45;;;6.75;;
14734;SDS011;7458;49.002;8.472;2022-11-15T09:00:51;11.85;;;8.57;;
14734;SDS011;7458;49.002;8.472;2022-11-15T09:03:16;9.10;;;7.65;;
14734;SDS011;7458;49.002;8.472;2022-11-15T09:05:42;8.68;;;7.20;;
14734;SDS011;7458;49.002;8.472;2022-11-15T09:08:08;17.02;;;7.97;;
14734;SDS011;7458;49.002;8.472;2022-11-15T09:10:34;7.80;;;7.00;;
14734;SDS011;7458;49.002;8.472;2022-11-15T09:12:59;11.63;;;7.18;;
14734;SDS011;7458;49.002;8.472;2022-11-15T09:15:25;12.95;;;8.60;;
14734;SDS011;7458;49.002;8.472;2022-11-15T09:17:51;11.18;;;8.35;;
14734;SDS011;7458;49.002;8.472;2022-11-15T09:20:16;21.70;;;9.68;;
14734;SDS011;7458;49.002;8.472;2022-11-15T09:22:42;15.25;;;8.73;;
14734;SDS011;7458;49.002;8.472;2022-11-15T09:25:08;8.90;;;7.45;;
14734;SDS011;7458;49.002;8.472;2022-11-15T09:27:34;12.77;;;7.53;;
14734;SDS011;7458;49.002;8.472;2022-11-15T09:30:00;9.23;;;6.60;;
14734;SDS011;7458;49.002;8.472;2022-11-15T09:32:29;10.13;;;6.45;;
14734;SDS011;7458;49.002;8.472;2022-11-15T09:34:57;6.63;;;5.93;;
14734;SDS011;7458;49.002;8.472;2022-11-15T09:37:23;9.32;;;6.55;;
14734;SDS011;7458;49.002;8.472;2022-11-15T09:39:49;9.65;;;8.10;;
14734;SDS011;7458;49.002;8.472;2022-11-15T09:42:23;12.02;;;7.65;;
14734;SDS011;7458;49.002;8.472;2022-11-15T09:45:23;10.90;;;8.15;;
14734;SDS011;7458;49.002;8.472;2022-11-15T09:51:17;9.77;;;7.45;;
14734;SDS011;7458;49.002;8.472;2022-11-15T09:56:34;14.27;;;8.25;;
14734;SDS011;7458;49.002;8.472;2022-11-15T10:05:22;8.50;;;5.85;;
14734;SDS011;7458;49.002;8.472;2022-11-15T10:10:41;7.55;;;6.38;;
14734;SDS011;7458;49.002;8.472;2022-11-15T10:13:24;13.30;;;6.93;;
14734;SDS011;7458;49.002;8.472;2022-11-15T10:24:39;8.52;;;6.47;;
14734;SDS011;7458;49.002;8.472;2022-11-15T10:27:12;6.93;;;5.90;;
14734;SDS011;7458;49.002;8.472;2022-11-15T10:29:45;8.95;;;7.13;;
14734;SDS011;7458;49.002;8.472;2022-11-15T10:32:16;8.52;;;6.68;;
14734;SDS011;7458;49.002;8.472;2022-11-15T10:34:44;8.40;;;7.28;;
14734;SDS011;7458;49.002;8.472;2022-11-15T10:37:11;9.88;;;7.32;;
14734;SDS011;7458;49.002;8.472;2022-11-15T10:39:37;9.25;;;7.25;;
14734;SDS011;7458;49.002;8.472;2022-11-15T10:44:54;9.02;;;7.05;;
14734;SDS011;7458;49.002;8.472;2022-11-15T10:49:53;9.68;;;8.45;;
14734;SDS011;7458;49.002;8.472;2022-11-15T10:52:33;11.57;;;8.88;;
14734;SDS011;7458;49.002;8.472;2022-11-15T10:57:37;13.10;;;7.93;;
14734;SDS011;7458;49.002;8.472;2022-11-15T11:00:26;9.65;;;7.82;;
14734;SDS011;7458;49.002;8.472;2022-11-15T11:05:25;10.40;;;9.27;;
14734;SDS011;7458;49.002;8.472;2022-11-15T11:10:26;10.13;;;9.02;;
14734;SDS011;7458;49.002;8.472;2022-11-15T11:12:53;10.23;;;8.50;;
14734;SDS011;7458;49.002;8.472;2022-11-15T11:15:19;9.48;;;8.05;;
14734;SDS011;7458;49.002;8.472;2022-11-15T11:18:02;11.13;;;8.57;;
14734;SDS011;7458;49.002;8.472;2022-11-15T11:20:41;11.80;;;9.43;;
14734;SDS011;7458;49.002;8.472;2022-11-15T11:41:07;10.40;;;8.52;;
14734;SDS011;7458;49.002;8.472;2022-11-15T11:52:33;10.40;;;9.40;;
14734;SDS011;7458;49.002;8.472;2022-11-15T12:06:52;15.13;;;10.82;;
14734;SDS011;7458;49.002;8.472;2022-11-15T12:14:54;12.15;;;9.73;;
14734;SDS011;7458;49.002;8.472;2022-11-15T12:17:29;26.05;;;9.80;;
14734;SDS011;7458;49.002;8.472;2022-11-15T12:20:02;18.27;;;8.50;;
14734;SDS011;7458;49.002;8.472;2022-11-15T12:25:33;17.00;;;7.57;;
14734;SDS011;7458;49.002;8.472;2022-11-15T12:30:47;11.43;;;6.30;;
14734;SDS011;7458;49.002;8.472;2022-11-15T12:36:00;7.50;;;4.15;;
14734;SDS011;7458;49.002;8.472;2022-11-15T12:43:53;9.90;;;5.72;;
14734;SDS011;7458;49.002;8.472;2022-11-15T12:48:57;11.80;;;5.72;;
14734;SDS011;7458;49.002;8.472;2022-11-15T12:59:49;6.93;;;5.75;;
14734;SDS011;7458;49.002;8.472;2022-11-15T13:02:17;7.03;;;6.13;;
14734;SDS011;7458;49.002;8.472;2022-11-15T13:04:52;6.03;;;5.32;;
14734;SDS011;7458;49.002;8.472;2022-11-15T13:17:38;9.75;;;5.47;;
14734;SDS011;7458;49.002;8.472;2022-11-15T13:25:44;9.63;;;6.38;;
14734;SDS011;7458;49.002;8.472;2022-11-15T13:31:34;14.52;;;6.53;;
14734;SDS011;7458;49.002;8.472;2022-11-15T13:37:01;8.27;;;6.22;;
14734;SDS011;7458;49.002;8.472;2022-11-15T13:39:29;12.32;;;6.10;;
14734;SDS011;7458;49.002;8.472;2022-11-15T13:41:58;15.73;;;6.60;;
14734;SDS011;7458;49.002;8.472;2022-11-15T13:44:26;6.72;;;6.05;;
14734;SDS011;7458;49.002;8.472;2022-11-15T13:47:16;10.45;;;6.78;;
14734;SDS011;7458;49.002;8.472;2022-11-15T13:49:44;6.50;;;5.75;;
14734;SDS011;7458;49.002;8.472;2022-11-15T13:52:11;6.60;;;4.97;;
14734;SDS011;7458;49.002;8.472;2022-11-15T13:54:50;6.38;;;5.32;;
14734;SDS011;7458;49.002;8.472;2022-11-15T13:57:38;6.20;;;5.45;;
14734;SDS011;7458;49.002;8.472;2022-11-15T14:02:57;13.85;;;7.38;;
14734;SDS011;7458;49.002;8.472;2022-11-15T14:16:36;8.32;;;6.88;;
14734;SDS011;7458;49.002;8.472;2022-11-15T14:19:10;9.48;;;6.90;;
14734;SDS011;7458;49.002;8.472;2022-11-15T14:24:37;10.98;;;7.05;;
14734;SDS011;7458;49.002;8.472;2022-11-15T14:27:20;7.85;;;5.60;;
14734;SDS011;7458;49.002;8.472;2022-11-15T14:29:51;8.60;;;6.72;;
14734;SDS011;7458;49.002;8.472;2022-11-15T14:32:20;10.45;;;6.20;;
14734;SDS011;7458;49.002;8.472;2022-11-15T14:34:56;7.55;;;5.43;;
14734;SDS011;7458;49.002;8.472;2022-11-15T14:37:32;8.80;;;6.00;;
14734;SDS011;7458;49.002;8.472;2022-11-15T14:40:00;9.32;;;5.68;;
14734;SDS011;7458;49.002;8.472;2022-11-15T14:42:28;11.45;;;5.22;;
14734;SDS011;7458;49.002;8.472;2022-11-15T14:44:54;10.90;;;5.57;;
14734;SDS011;7458;49.002;8.472;2022-11-15T14:47:20;7.88;;;6.47;;
14734;SDS011;7458;49.002;8.472;2022-11-15T14:49:46;9.57;;;5.20;;
14734;SDS011;7458;49.002;8.472;2022-11-15T14:52:17;8.40;;;6.90;;
14734;SDS011;7458;49.002;8.472;2022-11-15T14:54:58;11.95;;;5.72;;
14734;SDS011;7458;49.002;8.472;2022-11-15T14:57:26;10.32;;;9.15;;
14734;SDS011;7458;49.002;8.472;2022-11-15T14:59:51;12.48;;;7.43;;
14734;SDS011;7458;49.002;8.472;2022-11-15T15:02:18;8.23;;;6.45;;
14734;SDS011;7458;49.002;8.472;2022-11-15T15:04:47;7.90;;;6.90;;
14734;SDS011;7458;49.002;8.472;2022-11-15T15:07:14;7.63;;;6.80;;
14734;SDS011;7458;49.002;8.472;2022-11-15T15:09:40;8.25;;;7.10;;
14734;SDS011;7458;49.002;8.472;2022-11-15T15:12:17;9.23;;;7.07;;
14734;SDS011;7458;49.002;8.472;2022-11-15T15:14:48;9.70;;;7.82;;
14734;SDS011;7458;49.002;8.472;2022-11-15T15:17:16;8.40;;;6.28;;
14734;SDS011;7458;49.002;8.472;2022-11-15T15:19:43;9.38;;;6.65;;
14734;SDS011;7458;49.002;8.472;2022-11-15T15:22:13;7.95;;;6.00;;
14734;SDS011;7458;49.002;8.472;2022-11-15T15:24:42;8.05;;;6.25;;
14734;SDS011;7458;49.002;8.472;2022-11-15T15:27:09;7.60;;;5.85;;
14734;SDS011;7458;49.002;8.472;2022-11-15T15:29:36;12.85;;;6.70;;
14734;SDS011;7458;49.002;8.472;2022-11-15T15:32:02;11.60;;;6.80;;
14734;SDS011;7458;49.002;8.472;2022-11-15T15:34:28;8.48;;;6.70;;
14734;SDS011;7458;49.002;8.472;2022-11-15T15:37:15;9.15;;;7.38;;
14734;SDS011;7458;49.002;8.472;2022-11-15T15:39:52;11.55;;;6.93;;
14734;SDS011;7458;49.002;8.472;2022-11-15T15:42:20;7.72;;;6.30;;
14734;SDS011;7458;49.002;8.472;2022-11-15T15:44:48;7.68;;;5.07;;
14734;SDS011;7458;49.002;8.472;2022-11-15T15:47:16;5.85;;;4.07;;
14734;SDS011;7458;49.002;8.472;2022-11-15T15:49:47;8.95;;;5.57;;
14734;SDS011;7458;49.002;8.472;2022-11-15T15:52:15;7.10;;;4.18;;
14734;SDS011;7458;49.002;8.472;2022-11-15T15:54:41;5.03;;;3.92;;
14734;SDS011;7458;49.002;8.472;2022-11-15T15:57:07;4.07;;;3.38;;
14734;SDS011;7458;49.002;8.472;2022-11-15T15:59:37;5.50;;;3.58;;
14734;SDS011;7458;49.002;8.472;2022-11-15T16:02:03;5.32;;;3.40;;
14734;SDS011;7458;49.002;8.472;2022-11-15T16:04:30;8.13;;;5.35;;
14734;SDS011;7458;49.002;8.472;2022-11-15T16:06:59;5.50;;;4.30;;
14734;SDS011;7458;49.002;8.472;2022-11-15T16:09:26;7.88;;;4.57;;
14734;SDS011;7458;49.002;8.472;2022-11-15T16:12:11;5.82;;;3.40;;
14734;SDS011;7458;49.002;8.472;2022-11-15T16:14:36;5.78;;;3.58;;
14734;SDS011;7458;49.002;8.472;2022-11-15T16:17:02;5.85;;;3.58;;
14734;SDS011;7458;49.002;8.472;2022-11-15T16:19:28;6.25;;;3.42;;
14734;SDS011;7458;49.002;8.472;2022-11-15T16:21:54;7.55;;;3.25;;
14734;SDS011;7458;49.002;8.472;2022-11-15T16:24:20;4.60;;;3.67;;
14734;SDS011;7458;49.002;8.472;2022-11-15T16:26:47;4.88;;;3.17;;
14734;SDS011;7458;49.002;8.472;2022-11-15T16:29:16;4.28;;;3.10;;
14734;SDS011;7458;49.002;8.472;2022-11-15T16:31:41;6.10;;;3.00;;
14734;SDS011;7458;49.002;8.472;2022-11-15T16:34:07;7.13;;;3.88;;
14734;SDS011;7458;49.002;8.472;2022-11-15T16:36:34;4.82;;;3.65;;
14734;SDS011;7458;49.002;8.472;2022-11-15T16:39:00;5.70;;;3.45;;
14734;SDS011;7458;49.002;8.472;2022-11-15T16:41:30;6.38;;;3.70;;
14734;SDS011;7458;49.002;8.472;2022-11-15T16:43:57;5.32;;;3.70;;
14734;SDS011;7458;49.002;8.472;2022-11-15T16:46:26;4.70;;;3.28;;
14734;SDS011;7458;49.002;8.472;2022-11-15T16:48:54;9.73;;;4.43;;
14734;SDS011;7458;49.002;8.472;2022-11-15T16:51:20;5.53;;;3.13;;
14734;SDS011;7458;49.002;8.472;2022-11-15T16:53:47;5.95;;;3.50;;
14734;SDS011;7458;49.002;8.472;2022-11-15T16:58:51;7.10;;;5.65;;
14734;SDS011;7458;49.002;8.472;2022-11-15T17:01:22;6.50;;;4.30;;
14734;SDS011;7458;49.002;8.472;2022-11-15T17:03:50;6.07;;;4.30;;
14734;SDS011;7458;49.002;8.472;2022-11-15T17:06:16;8.90;;;6.85;;
14734;SDS011;7458;49.002;8.472;2022-11-15T17:08:45;10.43;;;9.43;;
14734;SDS011;7458;49.002;8.472;2022-11-15T17:11:16;10.93;;;8.98;;
14734;SDS011;7458;49.002;8.472;2022-11-15T17:13:45;14.30;;;11.55;;
14734;SDS011;7458;49.002;8.472;2022-11-15T17:16:12;11.15;;;6.72;;
14734;SDS011;7458;49.002;8.472;2022-11-15T17:18:40;12.05;;;9.07;;
14734;SDS011;7458;49.002;8.472;2022-11-15T17:21:14;9.50;;;4.47;;
14734;SDS011;7458;49.002;8.472;2022-11-15T17:23:43;6.90;;;3.58;;
14734;SDS011;7458;49.002;8.472;2022-11-15T17:26:10;8.98;;;4.15;;
14734;SDS011;7458;49.002;8.472;2022-11-15T17:28:38;7.25;;;2.92;;
14734;SDS011;7458;49.002;8.472;2022-11-15T17:31:08;6.25;;;3.47;;
14734;SDS011;7458;49.002;8.472;2022-11-15T17:33:37;7.10;;;3.08;;
14734;SDS011;7458;49.002;8.472;2022-11-15T17:36:07;5.10;;;3.65;;
14734;SDS011;7458;49.002;8.472;2022-11-15T17:38:36;4.28;;;3.00;;
14734;SDS011;7458;49.002;8.472;2022-11-15T17:41:06;10.07;;;3.45;;
14734;SDS011;7458;49.002;8.472;2022-11-15T17:43:38;6.18;;;3.47;;
14734;SDS011;7458;49.002;8.472;2022-11-15T17:46:06;3.78;;;3.22;;
14734;SDS011;7458;49.002;8.472;2022-11-15T17:48:35;5.97;;;3.85;;
14734;SDS011;7458;49.002;8.472;2022-11-15T17:51:02;4.97;;;3.58;;
14734;SDS011;7458;49.002;8.472;2022-11-15T17:53:32;4.25;;;3.65;;
14734;SDS011;7458;49.002;8.472;2022-11-15T17:56:04;5.70;;;4.88;;
14734;SDS011;7458;49.002;8.472;2022-11-15T17:58:36;6.53;;;4.82;;
14734;SDS011;7458;49.002;8.472;2022-11-15T18:03:41;7.38;;;5.18;;
14734;SDS011;7458;49.002;8.472;2022-11-15T18:06:08;6.03;;;3.92;;
14734;SDS011;7458;49.002;8.472;2022-11-15T18:08:35;7.13;;;5.55;;
14734;SDS011;7458;49.002;8.472;2022-11-15T18:11:03;4.70;;;3.95;;
14734;SDS011;7458;49.002;8.472;2022-11-15T18:13:36;5.72;;;3.65;;